sensor_id;sensor_type;location;lat;lon;timestamp;P1;durP1;ratioP1;P2;durP2;ratioP2
2053;SDS011;1032;52.542;13.440;2023-02-19T00:00:59;4.40;;;3.57;;
2053;SDS011;1032;52.542;13.440;2023-02-19T00:03:28;4.60;;;3.07;;
2053;SDS011;1032;52.542;13.440;2023-02-19T00:05:55;4.93;;;3.20;;
2053;SDS011;1032;52.542;13.440;2023-02-19T00:08:22;4.27;;;3.27;;
2053;SDS011;1032;52.542;13.440;2023-02-19T00:10:49;5.20;;;3.20;;
2053;SDS011;1032;52.542;13.440;2023-02-19T00:13:17;6.03;;;3.20;;
2053;SDS011;1032;52.542;13.440;2023-02-19T00:15:45;3.17;;;2.73;;
2053;SDS011;1032;52.542;13.440;2023-02-19T00:18:12;9.30;;;3.30;;
2053;SDS011;1032;52.542;13.440;2023-02-19T00:20:39;4.20;;;2.70;;
2053;SDS011;1032;52.542;13.440;2023-02-19T00:23:06;3.30;;;2.67;;
2053;SDS011;1032;52.542;13.440;2023-02-19T00:25:35;6.77;;;3.20;;
2053;SDS011;1032;52.542;13.440;2023-02-19T00:28:02;5.73;;;3.87;;
2053;SDS011;1032;52.542;13.440;2023-02-19T00:30:29;2.90;;;2.60;;
2053;SDS011;1032;52.542;13.440;2023-02-19T00:32:57;4.03;;;2.43;;
2053;SDS011;1032;52.542;13.440;2023-02-19T00:35:27;5.00;;;3.13;;
2053;SDS011;1032;52.542;13.440;2023-02-19T00:37:54;4.20;;;2.40;;
2053;SDS011;1032;52.542;13.440;2023-02-19T00:40:21;2.90;;;2.30;;
2053;SDS011;1032;52.542;13.440;2023-02-19T00:42:51;4.93;;;2.57;;
2053;SDS011;1032;52.542;13.440;2023-02-19T00:45:18;3.40;;;2.63;;
2053;SDS011;1032;52.542;13.440;2023-02-19T00:47:45;3.87;;;2.77;;
2053;SDS011;1032;52.542;13.440;2023-02-19T00:50:14;4.90;;;2.30;;
2053;SDS011;1032;52.542;13.440;2023-02-19T00:52:41;3.03;;;2.33;;
2053;SDS011;1032;52.542;13.440;2023-02-19T00:55:08;3.20;;;2.80;;
2053;SDS011;1032;52.542;13.440;2023-02-19T00:57:35;3.50;;;2.63;;
2053;SDS011;1032;52.542;13.440;2023-02-19T01:00:02;4.70;;;3.23;;
2053;SDS011;1032;52.542;13.440;2023-02-19T01:02:30;3.70;;;2.43;;
2053;SDS011;1032;52.542;13.440;2023-02-19T01:04:57;4.70;;;2.90;;
2053;SDS011;1032;52.542;13.440;2023-02-19T01:07:26;3.60;;;3.13;;
2053;SDS011;1032;52.542;13.440;2023-02-19T01:09:53;3.80;;;2.70;;
2053;SDS011;1032;52.542;13.440;2023-02-19T01:12:20;4.57;;;3.60;;
2053;SDS011;1032;52.542;13.440;2023-02-19T01:14:48;5.00;;;3.03;;
2053;SDS011;1032;52.542;13.440;2023-02-19T01:17:15;3.93;;;2.90;;
2053;SDS011;1032;52.542;13.440;2023-02-19T01:19:42;3.83;;;2.97;;
2053;SDS011;1032;52.542;13.440;2023-02-19T01:22:09;4.33;;;3.60;;
2053;SDS011;1032;52.542;13.440;2023-02-19T01:24:37;4.07;;;3.67;;
2053;SDS011;1032;52.542;13.440;2023-02-19T01:27:06;5.20;;;3.27;;
2053;SDS011;1032;52.542;13.440;2023-02-19T01:29:33;7.20;;;3.30;;
2053;SDS011;1032;52.542;13.440;2023-02-19T01:32:01;4.33;;;3.50;;
2053;SDS011;1032;52.542;13.440;2023-02-19T01:34:27;4.93;;;3.30;;
2053;SDS011;1032;52.542;13.440;2023-02-19T01:36:57;4.03;;;3.63;;
2053;SDS011;1032;52.542;13.440;2023-02-19T01:39:24;6.27;;;4.17;;
2053;SDS011;1032;52.542;13.440;2023-02-19T01:41:53;4.30;;;3.60;;
2053;SDS011;1032;52.542;13.440;2023-02-19T01:47:39;4.07;;;3.20;;
2053;SDS011;1032;52.542;13.440;2023-02-19T01:50:06;3.60;;;3.10;;
2053;SDS011;1032;52.542;13.440;2023-02-19T01:52:33;5.03;;;2.93;;
2053;SDS011;1032;52.542;13.440;2023-02-19T01:55:05;4.77;;;3.60;;
2053;SDS011;1032;52.542;13.440;2023-02-19T01:57:36;4.03;;;3.60;;
2053;SDS011;1032;52.542;13.440;2023-02-19T02:00:08;7.07;;;3.60;;
2053;SDS011;1032;52.542;13.440;2023-02-19T02:02:41;5.20;;;4.10;;
2053;SDS011;1032;52.542;13.440;2023-02-19T02:05:12;5.90;;;4.53;;
2053;SDS011;1032;52.542;13.440;2023-02-19T02:07:47;7.47;;;4.77;;
2053;SDS011;1032;52.542;13.440;2023-02-19T02:10:31;5.83;;;5.23;;
2053;SDS011;1032;52.542;13.440;2023-02-19T02:13:02;6.60;;;5.03;;
2053;SDS011;1032;52.542;13.440;2023-02-19T02:15:33;7.97;;;5.10;;
2053;SDS011;1032;52.542;13.440;2023-02-19T02:18:05;7.30;;;5.90;;
2053;SDS011;1032;52.542;13.440;2023-02-19T02:20:44;6.40;;;5.20;;
2053;SDS011;1032;52.542;13.440;2023-02-19T02:23:34;7.83;;;5.40;;
2053;SDS011;1032;52.542;13.440;2023-02-19T02:26:18;7.27;;;5.40;;
2053;SDS011;1032;52.542;13.440;2023-02-19T02:29:05;6.10;;;5.50;;
2053;SDS011;1032;52.542;13.440;2023-02-19T02:31:54;8.57;;;6.20;;
2053;SDS011;1032;52.542;13.440;2023-02-19T02:34:24;7.63;;;5.63;;
2053;SDS011;1032;52.542;13.440;2023-02-19T02:36:55;7.80;;;5.63;;
2053;SDS011;1032;52.542;13.440;2023-02-19T02:39:26;7.70;;;5.30;;
2053;SDS011;1032;52.542;13.440;2023-02-19T02:41:56;5.60;;;4.90;;
2053;SDS011;1032;52.542;13.440;2023-02-19T02:44:49;5.97;;;4.20;;
2053;SDS011;1032;52.542;13.440;2023-02-19T02:47:35;6.90;;;4.60;;
2053;SDS011;1032;52.542;13.440;2023-02-19T02:50:11;5.23;;;4.50;;
2053;SDS011;1032;52.542;13.440;2023-02-19T02:52:44;10.43;;;4.80;;
2053;SDS011;1032;52.542;13.440;2023-02-19T02:55:33;7.17;;;4.87;;
2053;SDS011;1032;52.542;13.440;2023-02-19T02:58:05;6.13;;;4.80;;
2053;SDS011;1032;52.542;13.440;2023-02-19T03:00:33;6.63;;;4.10;;
2053;SDS011;1032;52.542;13.440;2023-02-19T03:03:18;12.63;;;4.33;;
2053;SDS011;1032;52.542;13.440;2023-02-19T03:05:47;5.50;;;4.57;;
2053;SDS011;1032;52.542;13.440;2023-02-19T03:08:21;11.90;;;5.30;;
2053;SDS011;1032;52.542;13.440;2023-02-19T03:10:53;7.80;;;4.70;;
2053;SDS011;1032;52.542;13.440;2023-02-19T03:13:26;8.07;;;4.33;;
2053;SDS011;1032;52.542;13.440;2023-02-19T03:16:14;11.23;;;4.60;;
2053;SDS011;1032;52.542;13.440;2023-02-19T03:19:03;7.20;;;5.07;;
2053;SDS011;1032;52.542;13.440;2023-02-19T03:21:48;7.07;;;5.03;;
2053;SDS011;1032;52.542;13.440;2023-02-19T03:24:20;9.23;;;5.10;;
2053;SDS011;1032;52.542;13.440;2023-02-19T03:27:10;10.00;;;5.50;;
2053;SDS011;1032;52.542;13.440;2023-02-19T03:29:44;11.50;;;5.40;;
2053;SDS011;1032;52.542;13.440;2023-02-19T03:32:13;11.60;;;5.40;;
2053;SDS011;1032;52.542;13.440;2023-02-19T03:34:45;8.70;;;5.63;;
2053;SDS011;1032;52.542;13.440;2023-02-19T03:37:17;10.23;;;7.20;;
2053;SDS011;1032;52.542;13.440;2023-02-19T03:39:52;4.53;;;3.50;;
2053;SDS011;1032;52.542;13.440;2023-02-19T03:42:23;6.53;;;4.50;;
2053;SDS011;1032;52.542;13.440;2023-02-19T03:45:03;3.70;;;2.63;;
2053;SDS011;1032;52.542;13.440;2023-02-19T03:48:02;8.30;;;3.13;;
2053;SDS011;1032;52.542;13.440;2023-02-19T03:50:46;5.00;;;3.20;;
2053;SDS011;1032;52.542;13.440;2023-02-19T03:53:16;6.93;;;3.03;;
2053;SDS011;1032;52.542;13.440;2023-02-19T03:55:52;6.00;;;3.27;;
2053;SDS011;1032;52.542;13.440;2023-02-19T03:58:31;7.03;;;3.57;;
2053;SDS011;1032;52.542;13.440;2023-02-19T04:01:06;7.20;;;3.20;;
2053;SDS011;1032;52.542;13.440;2023-02-19T04:03:36;11.80;;;3.57;;
2053;SDS011;1032;52.542;13.440;2023-02-19T04:06:09;6.10;;;3.53;;
2053;SDS011;1032;52.542;13.440;2023-02-19T04:08:39;9.63;;;3.97;;
2053;SDS011;1032;52.542;13.440;2023-02-19T04:11:13;4.60;;;3.00;;
2053;SDS011;1032;52.542;13.440;2023-02-19T04:13:43;7.07;;;3.80;;
2053;SDS011;1032;52.542;13.440;2023-02-19T04:16:14;8.60;;;3.33;;
2053;SDS011;1032;52.542;13.440;2023-02-19T04:18:46;5.00;;;3.20;;
2053;SDS011;1032;52.542;13.440;2023-02-19T04:21:17;6.00;;;3.10;;
2053;SDS011;1032;52.542;13.440;2023-02-19T04:23:45;12.97;;;4.50;;
2053;SDS011;1032;52.542;13.440;2023-02-19T04:26:13;6.00;;;2.80;;
2053;SDS011;1032;52.542;13.440;2023-02-19T04:28:42;5.37;;;2.70;;
2053;SDS011;1032;52.542;13.440;2023-02-19T04:31:09;5.13;;;2.80;;
2053;SDS011;1032;52.542;13.440;2023-02-19T04:33:36;5.90;;;2.57;;
2053;SDS011;1032;52.542;13.440;2023-02-19T04:36:04;6.80;;;2.67;;
2053;SDS011;1032;52.542;13.440;2023-02-19T04:38:33;9.38;;;3.50;;
2053;SDS011;1032;52.542;13.440;2023-02-19T04:41:00;5.87;;;2.40;;
2053;SDS011;1032;52.542;13.440;2023-02-19T04:43:27;7.13;;;2.80;;
2053;SDS011;1032;52.542;13.440;2023-02-19T04:45:57;5.63;;;2.43;;
2053;SDS011;1032;52.542;13.440;2023-02-19T04:48:25;5.93;;;3.17;;
2053;SDS011;1032;52.542;13.440;2023-02-19T04:50:52;8.40;;;3.80;;
2053;SDS011;1032;52.542;13.440;2023-02-19T04:53:19;6.23;;;3.10;;
2053;SDS011;1032;52.542;13.440;2023-02-19T04:55:47;4.80;;;2.70;;
2053;SDS011;1032;52.542;13.440;2023-02-19T04:58:17;6.93;;;3.20;;
2053;SDS011;1032;52.542;13.440;2023-02-19T05:00:45;4.97;;;3.17;;
2053;SDS011;1032;52.542;13.440;2023-02-19T05:03:16;4.70;;;3.00;;
2053;SDS011;1032;52.542;13.440;2023-02-19T05:05:43;4.68;;;3.33;;
2053;SDS011;1032;52.542;13.440;2023-02-19T05:08:10;5.60;;;2.80;;
2053;SDS011;1032;52.542;13.440;2023-02-19T05:10:37;6.78;;;3.30;;
2053;SDS011;1032;52.542;13.440;2023-02-19T05:13:05;4.85;;;3.33;;
2053;SDS011;1032;52.542;13.440;2023-02-19T05:15:32;4.50;;;3.00;;
2053;SDS011;1032;52.542;13.440;2023-02-19T05:18:01;9.87;;;4.10;;
2053;SDS011;1032;52.542;13.440;2023-02-19T05:20:28;4.23;;;3.30;;
2053;SDS011;1032;52.542;13.440;2023-02-19T05:22:55;7.60;;;3.97;;
2053;SDS011;1032;52.542;13.440;2023-02-19T05:25:22;5.00;;;3.10;;
2053;SDS011;1032;52.542;13.440;2023-02-19T05:27:49;5.93;;;3.70;;
2053;SDS011;1032;52.542;13.440;2023-02-19T05:30:38;5.23;;;3.43;;
2053;SDS011;1032;52.542;13.440;2023-02-19T05:33:05;7.10;;;3.77;;
2053;SDS011;1032;52.542;13.440;2023-02-19T05:35:44;5.40;;;3.23;;
2053;SDS011;1032;52.542;13.440;2023-02-19T05:38:31;6.22;;;3.20;;
2053;SDS011;1032;52.542;13.440;2023-02-19T05:41:05;6.00;;;3.40;;
2053;SDS011;1032;52.542;13.440;2023-02-19T05:43:33;10.48;;;4.43;;
2053;SDS011;1032;52.542;13.440;2023-02-19T05:46:01;8.67;;;3.77;;
2053;SDS011;1032;52.542;13.440;2023-02-19T05:48:28;5.73;;;3.00;;
2053;SDS011;1032;52.542;13.440;2023-02-19T05:51:00;5.93;;;3.65;;
2053;SDS011;1032;52.542;13.440;2023-02-19T05:53:28;8.13;;;3.97;;
2053;SDS011;1032;52.542;13.440;2023-02-19T05:55:55;10.50;;;3.38;;
2053;SDS011;1032;52.542;13.440;2023-02-19T05:58:22;7.60;;;3.23;;
2053;SDS011;1032;52.542;13.440;2023-02-19T06:00:49;6.75;;;3.17;;
2053;SDS011;1032;52.542;13.440;2023-02-19T06:03:21;4.40;;;3.30;;
2053;SDS011;1032;52.542;13.440;2023-02-19T06:05:48;7.07;;;3.15;;
2053;SDS011;1032;52.542;13.440;2023-02-19T06:08:15;6.03;;;3.90;;
2053;SDS011;1032;52.542;13.440;2023-02-19T06:10:42;8.47;;;3.57;;
2053;SDS011;1032;52.542;13.440;2023-02-19T06:13:09;8.63;;;3.33;;
2053;SDS011;1032;52.542;13.440;2023-02-19T06:15:36;7.37;;;3.07;;
2053;SDS011;1032;52.542;13.440;2023-02-19T06:18:03;3.47;;;2.55;;
2053;SDS011;1032;52.542;13.440;2023-02-19T06:20:31;8.10;;;2.97;;
2053;SDS011;1032;52.542;13.440;2023-02-19T06:22:58;11.40;;;2.83;;
2053;SDS011;1032;52.542;13.440;2023-02-19T06:25:25;5.97;;;3.35;;
2053;SDS011;1032;52.542;13.440;2023-02-19T06:27:54;6.35;;;2.45;;
2053;SDS011;1032;52.542;13.440;2023-02-19T06:30:21;7.20;;;3.20;;
2053;SDS011;1032;52.542;13.440;2023-02-19T06:32:50;7.00;;;3.10;;
2053;SDS011;1032;52.542;13.440;2023-02-19T06:35:17;6.13;;;3.40;;
2053;SDS011;1032;52.542;13.440;2023-02-19T06:37:46;6.70;;;3.10;;
2053;SDS011;1032;52.542;13.440;2023-02-19T06:40:14;7.72;;;3.20;;
2053;SDS011;1032;52.542;13.440;2023-02-19T06:42:41;6.50;;;2.50;;
2053;SDS011;1032;52.542;13.440;2023-02-19T06:45:10;9.52;;;3.15;;
2053;SDS011;1032;52.542;13.440;2023-02-19T06:47:39;5.83;;;2.63;;
2053;SDS011;1032;52.542;13.440;2023-02-19T06:50:06;9.20;;;3.30;;
2053;SDS011;1032;52.542;13.440;2023-02-19T06:52:33;7.77;;;3.43;;
2053;SDS011;1032;52.542;13.440;2023-02-19T06:55:02;6.37;;;2.77;;
2053;SDS011;1032;52.542;13.440;2023-02-19T06:57:29;6.13;;;2.60;;
2053;SDS011;1032;52.542;13.440;2023-02-19T06:59:56;7.80;;;3.10;;
2053;SDS011;1032;52.542;13.440;2023-02-19T07:02:25;5.00;;;2.90;;
2053;SDS011;1032;52.542;13.440;2023-02-19T07:04:52;9.02;;;2.88;;
2053;SDS011;1032;52.542;13.440;2023-02-19T07:07:19;5.37;;;2.77;;
2053;SDS011;1032;52.542;13.440;2023-02-19T07:09:46;4.70;;;2.63;;
2053;SDS011;1032;52.542;13.440;2023-02-19T07:12:15;5.30;;;2.83;;
2053;SDS011;1032;52.542;13.440;2023-02-19T07:14:41;10.30;;;2.93;;
2053;SDS011;1032;52.542;13.440;2023-02-19T07:17:08;6.37;;;2.70;;
2053;SDS011;1032;52.542;13.440;2023-02-19T07:19:35;5.87;;;2.90;;
2053;SDS011;1032;52.542;13.440;2023-02-19T07:22:05;5.70;;;2.87;;
2053;SDS011;1032;52.542;13.440;2023-02-19T07:24:32;5.47;;;3.03;;
2053;SDS011;1032;52.542;13.440;2023-02-19T07:26:58;6.20;;;3.00;;
2053;SDS011;1032;52.542;13.440;2023-02-19T07:29:27;7.50;;;2.90;;
2053;SDS011;1032;52.542;13.440;2023-02-19T07:31:54;7.70;;;2.97;;
2053;SDS011;1032;52.542;13.440;2023-02-19T07:34:21;4.37;;;3.03;;
2053;SDS011;1032;52.542;13.440;2023-02-19T07:36:49;4.70;;;3.00;;
2053;SDS011;1032;52.542;13.440;2023-02-19T07:39:15;4.73;;;2.37;;
2053;SDS011;1032;52.542;13.440;2023-02-19T07:41:42;5.37;;;3.17;;
2053;SDS011;1032;52.542;13.440;2023-02-19T07:44:21;9.60;;;2.80;;
2053;SDS011;1032;52.542;13.440;2023-02-19T07:46:49;6.43;;;3.43;;
2053;SDS011;1032;52.542;13.440;2023-02-19T07:49:16;6.13;;;2.90;;
2053;SDS011;1032;52.542;13.440;2023-02-19T07:51:43;5.70;;;3.70;;
2053;SDS011;1032;52.542;13.440;2023-02-19T07:54:10;7.87;;;2.90;;
2053;SDS011;1032;52.542;13.440;2023-02-19T07:56:37;8.63;;;3.57;;
2053;SDS011;1032;52.542;13.440;2023-02-19T07:59:04;8.80;;;4.03;;
2053;SDS011;1032;52.542;13.440;2023-02-19T08:01:32;8.70;;;3.70;;
2053;SDS011;1032;52.542;13.440;2023-02-19T08:04:17;6.40;;;3.53;;
2053;SDS011;1032;52.542;13.440;2023-02-19T08:06:44;8.07;;;3.10;;
2053;SDS011;1032;52.542;13.440;2023-02-19T08:09:11;7.63;;;3.07;;
2053;SDS011;1032;52.542;13.440;2023-02-19T08:11:38;5.40;;;3.40;;
2053;SDS011;1032;52.542;13.440;2023-02-19T08:14:23;4.53;;;3.00;;
2053;SDS011;1032;52.542;13.440;2023-02-19T08:16:51;5.82;;;3.15;;
2053;SDS011;1032;52.542;13.440;2023-02-19T08:19:20;9.77;;;3.50;;
2053;SDS011;1032;52.542;13.440;2023-02-19T08:21:47;6.23;;;3.30;;
2053;SDS011;1032;52.542;13.440;2023-02-19T08:24:14;5.57;;;2.90;;
2053;SDS011;1032;52.542;13.440;2023-02-19T08:26:41;7.77;;;4.00;;
2053;SDS011;1032;52.542;13.440;2023-02-19T08:29:08;4.33;;;3.00;;
2053;SDS011;1032;52.542;13.440;2023-02-19T08:31:35;11.00;;;3.00;;
2053;SDS011;1032;52.542;13.440;2023-02-19T08:34:03;6.37;;;3.43;;
2053;SDS011;1032;52.542;13.440;2023-02-19T08:36:31;7.13;;;3.00;;
2053;SDS011;1032;52.542;13.440;2023-02-19T08:38:58;7.43;;;3.27;;
2053;SDS011;1032;52.542;13.440;2023-02-19T08:41:25;6.00;;;2.97;;
2053;SDS011;1032;52.542;13.440;2023-02-19T08:43:52;5.00;;;3.33;;
2053;SDS011;1032;52.542;13.440;2023-02-19T08:46:19;8.77;;;4.10;;
2053;SDS011;1032;52.542;13.440;2023-02-19T08:48:46;12.53;;;3.90;;
2053;SDS011;1032;52.542;13.440;2023-02-19T08:51:13;7.43;;;3.17;;
2053;SDS011;1032;52.542;13.440;2023-02-19T08:53:42;8.00;;;2.90;;
2053;SDS011;1032;52.542;13.440;2023-02-19T08:56:09;7.00;;;2.50;;
2053;SDS011;1032;52.542;13.440;2023-02-19T08:58:40;5.53;;;2.30;;
2053;SDS011;1032;52.542;13.440;2023-02-19T09:01:08;5.30;;;3.00;;
2053;SDS011;1032;52.542;13.440;2023-02-19T09:03:36;11.93;;;4.50;;
2053;SDS011;1032;52.542;13.440;2023-02-19T09:06:03;7.03;;;3.10;;
2053;SDS011;1032;52.542;13.440;2023-02-19T09:08:30;6.10;;;2.43;;
2053;SDS011;1032;52.542;13.440;2023-02-19T09:10:59;9.00;;;2.87;;
2053;SDS011;1032;52.542;13.440;2023-02-19T09:13:26;4.80;;;2.10;;
2053;SDS011;1032;52.542;13.440;2023-02-19T09:15:53;10.40;;;2.80;;
2053;SDS011;1032;52.542;13.440;2023-02-19T09:18:21;8.17;;;2.67;;
2053;SDS011;1032;52.542;13.440;2023-02-19T09:20:48;9.20;;;3.30;;
2053;SDS011;1032;52.542;13.440;2023-02-19T09:23:15;6.80;;;2.70;;
2053;SDS011;1032;52.542;13.440;2023-02-19T09:25:44;8.43;;;2.33;;
2053;SDS011;1032;52.542;13.440;2023-02-19T09:28:12;8.43;;;2.47;;
2053;SDS011;1032;52.542;13.440;2023-02-19T09:30:41;10.00;;;2.43;;
2053;SDS011;1032;52.542;13.440;2023-02-19T09:33:08;3.87;;;2.20;;
2053;SDS011;1032;52.542;13.440;2023-02-19T09:35:37;7.87;;;2.60;;
2053;SDS011;1032;52.542;13.440;2023-02-19T09:38:06;5.60;;;2.60;;
2053;SDS011;1032;52.542;13.440;2023-02-19T09:40:35;11.97;;;2.83;;
2053;SDS011;1032;52.542;13.440;2023-02-19T09:43:04;6.83;;;2.90;;
2053;SDS011;1032;52.542;13.440;2023-02-19T09:45:33;4.77;;;2.10;;
2053;SDS011;1032;52.542;13.440;2023-02-19T09:48:02;6.50;;;2.63;;
2053;SDS011;1032;52.542;13.440;2023-02-19T09:50:31;4.43;;;2.00;;
2053;SDS011;1032;52.542;13.440;2023-02-19T09:53:03;6.67;;;2.40;;
2053;SDS011;1032;52.542;13.440;2023-02-19T09:55:38;8.97;;;1.97;;
2053;SDS011;1032;52.542;13.440;2023-02-19T09:58:07;3.93;;;1.93;;
2053;SDS011;1032;52.542;13.440;2023-02-19T10:00:50;13.63;;;2.83;;
2053;SDS011;1032;52.542;13.440;2023-02-19T10:03:20;5.03;;;1.90;;
2053;SDS011;1032;52.542;13.440;2023-02-19T10:05:57;16.40;;;3.07;;
2053;SDS011;1032;52.542;13.440;2023-02-19T10:08:25;8.57;;;2.30;;
2053;SDS011;1032;52.542;13.440;2023-02-19T10:10:52;8.50;;;3.10;;
2053;SDS011;1032;52.542;13.440;2023-02-19T10:13:21;7.33;;;1.97;;
2053;SDS011;1032;52.542;13.440;2023-02-19T10:15:50;5.60;;;2.17;;
2053;SDS011;1032;52.542;13.440;2023-02-19T10:18:21;5.80;;;2.17;;
2053;SDS011;1032;52.542;13.440;2023-02-19T10:20:50;7.93;;;3.70;;
2053;SDS011;1032;52.542;13.440;2023-02-19T10:23:18;11.83;;;4.00;;
2053;SDS011;1032;52.542;13.440;2023-02-19T10:25:46;5.17;;;1.90;;
2053;SDS011;1032;52.542;13.440;2023-02-19T10:28:19;6.83;;;2.03;;
2053;SDS011;1032;52.542;13.440;2023-02-19T10:30:51;13.53;;;2.70;;
2053;SDS011;1032;52.542;13.440;2023-02-19T10:33:23;5.93;;;1.80;;
2053;SDS011;1032;52.542;13.440;2023-02-19T10:35:53;6.90;;;2.00;;
2053;SDS011;1032;52.542;13.440;2023-02-19T10:38:22;8.33;;;2.07;;
2053;SDS011;1032;52.542;13.440;2023-02-19T10:40:58;9.33;;;2.13;;
2053;SDS011;1032;52.542;13.440;2023-02-19T10:43:30;6.77;;;1.90;;
2053;SDS011;1032;52.542;13.440;2023-02-19T10:46:03;5.40;;;1.90;;
2053;SDS011;1032;52.542;13.440;2023-02-19T10:48:35;7.40;;;2.40;;
2053;SDS011;1032;52.542;13.440;2023-02-19T10:51:06;8.47;;;2.50;;
2053;SDS011;1032;52.542;13.440;2023-02-19T10:53:43;7.30;;;2.40;;
2053;SDS011;1032;52.542;13.440;2023-02-19T10:56:12;9.40;;;2.20;;
2053;SDS011;1032;52.542;13.440;2023-02-19T10:58:41;4.93;;;1.93;;
2053;SDS011;1032;52.542;13.440;2023-02-19T11:01:11;4.50;;;2.20;;
2053;SDS011;1032;52.542;13.440;2023-02-19T11:03:40;4.77;;;2.47;;
2053;SDS011;1032;52.542;13.440;2023-02-19T11:06:08;3.50;;;1.67;;
2053;SDS011;1032;52.542;13.440;2023-02-19T11:08:47;8.20;;;2.63;;
2053;SDS011;1032;52.542;13.440;2023-02-19T11:11:23;5.70;;;2.53;;
2053;SDS011;1032;52.542;13.440;2023-02-19T11:13:52;4.30;;;1.83;;
2053;SDS011;1032;52.542;13.440;2023-02-19T11:16:22;9.67;;;1.97;;
2053;SDS011;1032;52.542;13.440;2023-02-19T11:18:52;6.53;;;1.93;;
2053;SDS011;1032;52.542;13.440;2023-02-19T11:21:25;9.70;;;2.83;;
2053;SDS011;1032;52.542;13.440;2023-02-19T11:23:57;5.93;;;2.10;;
2053;SDS011;1032;52.542;13.440;2023-02-19T11:26:25;3.23;;;1.70;;
2053;SDS011;1032;52.542;13.440;2023-02-19T11:28:56;4.93;;;1.97;;
2053;SDS011;1032;52.542;13.440;2023-02-19T11:31:26;4.93;;;1.73;;
2053;SDS011;1032;52.542;13.440;2023-02-19T11:33:56;6.07;;;2.77;;
2053;SDS011;1032;52.542;13.440;2023-02-19T11:36:26;5.53;;;2.27;;
2053;SDS011;1032;52.542;13.440;2023-02-19T11:38:57;14.53;;;3.30;;
2053;SDS011;1032;52.542;13.440;2023-02-19T11:44:49;3.77;;;1.77;;
2053;SDS011;1032;52.542;13.440;2023-02-19T11:47:31;6.53;;;1.87;;
2053;SDS011;1032;52.542;13.440;2023-02-19T11:50:11;9.90;;;2.07;;
2053;SDS011;1032;52.542;13.440;2023-02-19T11:52:48;5.77;;;1.47;;
2053;SDS011;1032;52.542;13.440;2023-02-19T11:55:30;13.10;;;2.30;;
2053;SDS011;1032;52.542;13.440;2023-02-19T11:58:11;4.10;;;1.70;;
2053;SDS011;1032;52.542;13.440;2023-02-19T12:00:58;7.97;;;2.13;;
2053;SDS011;1032;52.542;13.440;2023-02-19T12:03:40;4.20;;;1.73;;
2053;SDS011;1032;52.542;13.440;2023-02-19T12:06:25;3.50;;;1.63;;
2053;SDS011;1032;52.542;13.440;2023-02-19T12:09:04;6.93;;;2.07;;
2053;SDS011;1032;52.542;13.440;2023-02-19T12:11:58;9.07;;;2.20;;
2053;SDS011;1032;52.542;13.440;2023-02-19T12:18:12;9.97;;;3.20;;
2053;SDS011;1032;52.542;13.440;2023-02-19T12:20:55;5.57;;;1.80;;
2053;SDS011;1032;52.542;13.440;2023-02-19T12:23:45;4.23;;;1.57;;
2053;SDS011;1032;52.542;13.440;2023-02-19T12:26:23;6.00;;;1.53;;
2053;SDS011;1032;52.542;13.440;2023-02-19T12:29:07;7.40;;;1.73;;
2053;SDS011;1032;52.542;13.440;2023-02-19T12:31:54;6.80;;;1.87;;
2053;SDS011;1032;52.542;13.440;2023-02-19T12:37:50;5.23;;;1.67;;
2053;SDS011;1032;52.542;13.440;2023-02-19T12:40:32;5.03;;;2.73;;
2053;SDS011;1032;52.542;13.440;2023-02-19T12:43:16;5.67;;;1.83;;
2053;SDS011;1032;52.542;13.440;2023-02-19T12:45:45;3.67;;;1.50;;
2053;SDS011;1032;52.542;13.440;2023-02-19T12:48:19;7.97;;;1.97;;
2053;SDS011;1032;52.542;13.440;2023-02-19T12:50:54;4.03;;;1.53;;
2053;SDS011;1032;52.542;13.440;2023-02-19T12:53:36;7.77;;;3.03;;
2053;SDS011;1032;52.542;13.440;2023-02-19T12:56:09;5.50;;;2.10;;
2053;SDS011;1032;52.542;13.440;2023-02-19T12:58:42;7.47;;;2.17;;
2053;SDS011;1032;52.542;13.440;2023-02-19T13:01:13;8.47;;;2.27;;
2053;SDS011;1032;52.542;13.440;2023-02-19T13:03:46;4.80;;;1.70;;
2053;SDS011;1032;52.542;13.440;2023-02-19T13:06:23;3.87;;;2.20;;
2053;SDS011;1032;52.542;13.440;2023-02-19T13:08:59;7.03;;;2.20;;
2053;SDS011;1032;52.542;13.440;2023-02-19T13:11:33;9.63;;;2.13;;
2053;SDS011;1032;52.542;13.440;2023-02-19T13:14:06;3.60;;;1.80;;
2053;SDS011;1032;52.542;13.440;2023-02-19T13:16:43;4.50;;;1.73;;
2053;SDS011;1032;52.542;13.440;2023-02-19T13:19:15;3.03;;;1.40;;
2053;SDS011;1032;52.542;13.440;2023-02-19T13:21:45;5.00;;;1.80;;
2053;SDS011;1032;52.542;13.440;2023-02-19T13:24:36;7.37;;;1.53;;
2053;SDS011;1032;52.542;13.440;2023-02-19T13:27:16;7.03;;;1.57;;
2053;SDS011;1032;52.542;13.440;2023-02-19T13:30:02;4.40;;;1.37;;
2053;SDS011;1032;52.542;13.440;2023-02-19T13:32:48;5.30;;;1.30;;
2053;SDS011;1032;52.542;13.440;2023-02-19T13:35:24;4.00;;;1.30;;
2053;SDS011;1032;52.542;13.440;2023-02-19T13:37:59;7.07;;;2.00;;
2053;SDS011;1032;52.542;13.440;2023-02-19T13:40:31;3.57;;;1.20;;
2053;SDS011;1032;52.542;13.440;2023-02-19T13:43:00;5.03;;;1.20;;
2053;SDS011;1032;52.542;13.440;2023-02-19T13:45:31;3.23;;;1.27;;
2053;SDS011;1032;52.542;13.440;2023-02-19T13:48:01;3.53;;;1.67;;
2053;SDS011;1032;52.542;13.440;2023-02-19T13:50:40;3.23;;;1.70;;
2053;SDS011;1032;52.542;13.440;2023-02-19T13:59:24;4.67;;;1.33;;
2053;SDS011;1032;52.542;13.440;2023-02-19T14:02:08;4.50;;;2.23;;
2053;SDS011;1032;52.542;13.440;2023-02-19T14:04:52;8.00;;;2.40;;
2053;SDS011;1032;52.542;13.440;2023-02-19T14:19:45;6.73;;;2.10;;
2053;SDS011;1032;52.542;13.440;2023-02-19T14:28:26;5.40;;;1.63;;
2053;SDS011;1032;52.542;13.440;2023-02-19T14:30:59;2.80;;;1.30;;
2053;SDS011;1032;52.542;13.440;2023-02-19T14:33:36;7.33;;;2.77;;
2053;SDS011;1032;52.542;13.440;2023-02-19T14:36:10;7.07;;;2.17;;
2053;SDS011;1032;52.542;13.440;2023-02-19T14:38:45;5.17;;;2.90;;
2053;SDS011;1032;52.542;13.440;2023-02-19T14:41:15;4.60;;;2.10;;
2053;SDS011;1032;52.542;13.440;2023-02-19T14:43:43;2.57;;;1.50;;
2053;SDS011;1032;52.542;13.440;2023-02-19T14:46:17;4.70;;;1.97;;
2053;SDS011;1032;52.542;13.440;2023-02-19T14:48:49;5.53;;;1.80;;
2053;SDS011;1032;52.542;13.440;2023-02-19T14:51:21;4.00;;;1.93;;
2053;SDS011;1032;52.542;13.440;2023-02-19T14:53:53;7.73;;;2.20;;
2053;SDS011;1032;52.542;13.440;2023-02-19T14:56:23;8.83;;;1.60;;
2053;SDS011;1032;52.542;13.440;2023-02-19T14:59:16;4.27;;;1.80;;
2053;SDS011;1032;52.542;13.440;2023-02-19T15:01:56;6.10;;;1.50;;
2053;SDS011;1032;52.542;13.440;2023-02-19T15:04:25;3.90;;;1.50;;
2053;SDS011;1032;52.542;13.440;2023-02-19T15:06:56;6.50;;;1.33;;
2053;SDS011;1032;52.542;13.440;2023-02-19T15:09:29;5.97;;;2.13;;
2053;SDS011;1032;52.542;13.440;2023-02-19T15:11:58;7.33;;;2.87;;
2053;SDS011;1032;52.542;13.440;2023-02-19T15:14:27;3.70;;;2.27;;
2053;SDS011;1032;52.542;13.440;2023-02-19T15:17:01;4.70;;;1.77;;
2053;SDS011;1032;52.542;13.440;2023-02-19T15:19:31;5.80;;;2.07;;
2053;SDS011;1032;52.542;13.440;2023-02-19T15:22:00;4.90;;;1.30;;
2053;SDS011;1032;52.542;13.440;2023-02-19T15:24:28;5.57;;;1.73;;
2053;SDS011;1032;52.542;13.440;2023-02-19T15:26:55;3.80;;;1.50;;
2053;SDS011;1032;52.542;13.440;2023-02-19T15:29:23;5.63;;;2.13;;
2053;SDS011;1032;52.542;13.440;2023-02-19T15:31:53;7.53;;;1.73;;
2053;SDS011;1032;52.542;13.440;2023-02-19T15:34:23;5.00;;;1.60;;
2053;SDS011;1032;52.542;13.440;2023-02-19T15:36:54;6.33;;;1.90;;
2053;SDS011;1032;52.542;13.440;2023-02-19T15:39:24;6.33;;;2.00;;
2053;SDS011;1032;52.542;13.440;2023-02-19T15:41:59;5.07;;;1.70;;
2053;SDS011;1032;52.542;13.440;2023-02-19T15:44:35;7.10;;;1.73;;
2053;SDS011;1032;52.542;13.440;2023-02-19T15:47:12;4.37;;;1.70;;
2053;SDS011;1032;52.542;13.440;2023-02-19T15:49:49;8.43;;;2.00;;
2053;SDS011;1032;52.542;13.440;2023-02-19T15:52:23;5.90;;;1.90;;
2053;SDS011;1032;52.542;13.440;2023-02-19T15:54:58;6.70;;;2.20;;
2053;SDS011;1032;52.542;13.440;2023-02-19T15:57:30;4.83;;;1.93;;
2053;SDS011;1032;52.542;13.440;2023-02-19T16:00:02;4.83;;;1.87;;
2053;SDS011;1032;52.542;13.440;2023-02-19T16:02:39;5.27;;;1.83;;
2053;SDS011;1032;52.542;13.440;2023-02-19T16:05:14;5.73;;;2.20;;